Details for Ryanair at LEMD




Go Back


Latest METAR
Local Time

LEMD 240000Z 35004KT CAVOK M01/M08 Q1005 NOSIG

24/02/2018, 01:17:43

Description
Results
Ryanair Logo
Number of Pilots based at LEMD
0 Pilots Based here
Number of Ryanair Flights Departed from LEMD
9 Flights Departed
Number of Ryanair Flights Arrived at LEMD
8 Flights Arrived
Number of Ryanair Schedules Departing from LEMD
113 Schedules
Number of Ryanair Schedules Arriving at LEMD
120 Schedules
Number of Ryanair Schedules Departing from LEMD availible today
47 Schedules Today
Number of Ryanair Schedules Arriving at LEMD availible today
47 Schedules Today
Average Landing Rate at LEMD
-218 fpm
Ryanair Average Landing Rate at LEMD
-331 fpm
Total Fuel Purchased at LEMD by Ryanair
38,838.40 kgs / 85,623.14 lbs

Pilots Based at LEMD


Pilot ID
Pilot Name
Pilot Rank
No. of Flights
No. of Flying Hours
There are no pilots assigned to this hub!   Will you be the first?
Content